Portada
METAR-TAF:

METAR-TAF

Aeroports :

Wuhan, Xina

latitud: 30-37N, longitud: 114-08E, altitud: 23 m

Observació

L'informe es va fer fa 49 minuts, a les 23:00 UTC
Vent 6 kt del Nord-Est
Temperatura 10°C
Humitat 82%
Pressió 1024 hPa
Visibilitat: 5000 m
Cel cobert a una alçada de 4000 ft
boirina

METAR: ZHHH 262300Z 04003MPS 5000 BR OVC040 10/07 Q1024 NOSIG

Hora: 07:49 (23:49 UTC)

Pronòstic

L'informe es va fer fa 2 hores i 39 minuts, a les 21:10 UTC
Pronòstic vàlid del 27 a les 00 UTC al 27 a les 24 UTC
Vent 6 kt del Nord-Est
Visibilitat: 5000 m
Cel ennuvolat a una alçada de 3000 ft
boirina
Evolucionant progressivament
l' 27 a les 09 UTC al 27 a les 10 UTC
Visibilitat: 3000 m
pluja, boirina

TAF: ZHHH 262110Z 2700/2724 04003MPS 5000 BR BKN030 TX15/2707Z TN10/2722Z BECMG 2709/2710 3000 -RA BR

Observacions i pronòstics meteorològics de més de 4000 aeroports (METAR i TAF).

Les estacions disponibles són els punts grocs i vermells al mapa.

Posi el ratolí al punt desitjat per veure el nom de l'estació.

Feu clic per veure les observacions i els pronòstics meteorològics.

Per canviar el mapa: feu clic els botons verds amb una creu de color negre per apropar; al botó verd amb un guió per allunyar la imatge; o en les fletxes verdes per a mapes adjacents.


METAR-TAF: